sensor_id;sensor_type;location;lat;lon;timestamp;pressure;altitude;pressure_sealevel;temperature;humidity
66689;BME280;53587;59.318;18.084;2023-07-13T00:01:54;100570.03;;;20.11;70.19
66689;BME280;53587;59.318;18.084;2023-07-13T00:04:21;100570.75;;;19.61;70.96
66689;BME280;53587;59.318;18.084;2023-07-13T00:06:47;100568.13;;;19.23;71.45
66689;BME280;53587;59.318;18.084;2023-07-13T00:09:13;100570.03;;;19.22;74.59
66689;BME280;53587;59.318;18.084;2023-07-13T00:11:39;100578.09;;;19.52;78.34
66689;BME280;53587;59.318;18.084;2023-07-13T00:14:04;100581.00;;;19.74;78.48
66689;BME280;53587;59.318;18.084;2023-07-13T00:16:30;100570.88;;;19.98;76.78
66689;BME280;53587;59.318;18.084;2023-07-13T00:18:55;100577.94;;;20.18;76.22
66689;BME280;53587;59.318;18.084;2023-07-13T00:21:20;100574.81;;;20.33;75.92
66689;BME280;53587;59.318;18.084;2023-07-13T00:23:45;100564.53;;;20.48;75.32
66689;BME280;53587;59.318;18.084;2023-07-13T00:26:11;100568.22;;;20.57;74.59
66689;BME280;53587;59.318;18.084;2023-07-13T00:28:37;100559.78;;;20.62;74.64
66689;BME280;53587;59.318;18.084;2023-07-13T00:31:03;100561.53;;;20.72;74.09
66689;BME280;53587;59.318;18.084;2023-07-13T00:33:28;100562.22;;;20.78;73.89
66689;BME280;53587;59.318;18.084;2023-07-13T00:35:54;100559.00;;;20.84;73.18
66689;BME280;53587;59.318;18.084;2023-07-13T00:38:20;100568.31;;;20.88;73.55
66689;BME280;53587;59.318;18.084;2023-07-13T00:40:45;100560.22;;;20.92;73.22
66689;BME280;53587;59.318;18.084;2023-07-13T00:43:20;100564.28;;;20.95;73.16
66689;BME280;53587;59.318;18.084;2023-07-13T00:48:11;100566.59;;;21.01;73.20
66689;BME280;53587;59.318;18.084;2023-07-13T00:50:39;100562.09;;;21.05;72.82
66689;BME280;53587;59.318;18.084;2023-07-13T00:53:05;100572.53;;;21.08;72.70
66689;BME280;53587;59.318;18.084;2023-07-13T00:55:31;100572.66;;;20.81;71.23
66689;BME280;53587;59.318;18.084;2023-07-13T00:57:56;100570.34;;;20.09;70.91
66689;BME280;53587;59.318;18.084;2023-07-13T01:00:21;100582.91;;;19.60;71.57
66689;BME280;53587;59.318;18.084;2023-07-13T01:02:47;100578.84;;;19.24;71.50
66689;BME280;53587;59.318;18.084;2023-07-13T01:05:14;100573.53;;;19.28;76.78
66689;BME280;53587;59.318;18.084;2023-07-13T01:07:40;100574.72;;;19.55;78.44
66689;BME280;53587;59.318;18.084;2023-07-13T01:10:06;100575.69;;;19.78;78.94
66689;BME280;53587;59.318;18.084;2023-07-13T01:12:32;100571.06;;;20.01;77.51
66689;BME280;53587;59.318;18.084;2023-07-13T01:15:00;100572.88;;;20.20;77.09
66689;BME280;53587;59.318;18.084;2023-07-13T01:17:26;100579.75;;;20.36;75.94
66689;BME280;53587;59.318;18.084;2023-07-13T01:19:53;100582.47;;;20.50;75.91
66689;BME280;53587;59.318;18.084;2023-07-13T01:22:18;100583.38;;;20.59;74.95
66689;BME280;53587;59.318;18.084;2023-07-13T01:24:45;100587.34;;;20.67;74.90
66689;BME280;53587;59.318;18.084;2023-07-13T01:27:11;100577.19;;;20.77;74.65
66689;BME280;53587;59.318;18.084;2023-07-13T01:29:37;100578.22;;;20.81;74.32
66689;BME280;53587;59.318;18.084;2023-07-13T01:32:13;100585.59;;;20.85;74.17
66689;BME280;53587;59.318;18.084;2023-07-13T01:34:38;100581.56;;;20.91;73.79
66689;BME280;53587;59.318;18.084;2023-07-13T01:37:07;100588.41;;;20.94;73.83
66689;BME280;53587;59.318;18.084;2023-07-13T01:39:32;100594.94;;;20.98;73.49
66689;BME280;53587;59.318;18.084;2023-07-13T01:41:58;100591.38;;;20.98;73.58
66689;BME280;53587;59.318;18.084;2023-07-13T01:44:23;100584.88;;;21.02;73.20
66689;BME280;53587;59.318;18.084;2023-07-13T01:46:48;100585.91;;;21.06;73.43
66689;BME280;53587;59.318;18.084;2023-07-13T01:49:13;100589.78;;;21.05;73.31
66689;BME280;53587;59.318;18.084;2023-07-13T01:51:39;100596.34;;;21.10;73.17
66689;BME280;53587;59.318;18.084;2023-07-13T01:54:04;100595.19;;;21.11;72.90
66689;BME280;53587;59.318;18.084;2023-07-13T01:56:29;100585.91;;;21.06;72.44
66689;BME280;53587;59.318;18.084;2023-07-13T01:58:54;100601.88;;;20.36;70.82
66689;BME280;53587;59.318;18.084;2023-07-13T02:01:20;100599.19;;;19.75;70.83
66689;BME280;53587;59.318;18.084;2023-07-13T02:03:45;100601.81;;;19.39;70.84
66689;BME280;53587;59.318;18.084;2023-07-13T02:06:11;100606.25;;;19.21;73.99
66689;BME280;53587;59.318;18.084;2023-07-13T02:08:36;100604.69;;;19.47;78.03
66689;BME280;53587;59.318;18.084;2023-07-13T02:11:02;100592.66;;;19.71;79.00
66689;BME280;53587;59.318;18.084;2023-07-13T02:13:28;100585.31;;;19.94;78.23
66689;BME280;53587;59.318;18.084;2023-07-13T02:15:53;100576.91;;;20.14;77.28
66689;BME280;53587;59.318;18.084;2023-07-13T02:18:18;100585.88;;;20.33;76.27
66689;BME280;53587;59.318;18.084;2023-07-13T02:20:44;100583.41;;;20.46;76.52
66689;BME280;53587;59.318;18.084;2023-07-13T02:23:09;100588.72;;;20.56;75.35
66689;BME280;53587;59.318;18.084;2023-07-13T02:25:35;100589.13;;;20.63;75.64
66689;BME280;53587;59.318;18.084;2023-07-13T02:28:00;100590.31;;;20.71;74.98
66689;BME280;53587;59.318;18.084;2023-07-13T02:30:26;100585.50;;;20.77;74.55
66689;BME280;53587;59.318;18.084;2023-07-13T02:32:51;100594.19;;;20.84;74.49
66689;BME280;53587;59.318;18.084;2023-07-13T02:35:16;100599.09;;;20.87;73.98
66689;BME280;53587;59.318;18.084;2023-07-13T02:37:41;100597.34;;;20.91;73.93
66689;BME280;53587;59.318;18.084;2023-07-13T02:40:07;100596.41;;;20.96;73.67
66689;BME280;53587;59.318;18.084;2023-07-13T02:42:33;100598.22;;;21.00;73.48
66689;BME280;53587;59.318;18.084;2023-07-13T02:44:59;100598.72;;;21.02;73.21
66689;BME280;53587;59.318;18.084;2023-07-13T02:47:24;100601.69;;;21.06;73.14
66689;BME280;53587;59.318;18.084;2023-07-13T02:49:49;100613.78;;;21.10;72.98
66689;BME280;53587;59.318;18.084;2023-07-13T02:52:14;100606.66;;;20.95;71.52
66689;BME280;53587;59.318;18.084;2023-07-13T02:54:39;100608.53;;;20.35;71.00
66689;BME280;53587;59.318;18.084;2023-07-13T02:57:05;100603.13;;;19.74;71.59
66689;BME280;53587;59.318;18.084;2023-07-13T02:59:30;100612.03;;;19.38;71.06
66689;BME280;53587;59.318;18.084;2023-07-13T03:01:56;100606.69;;;19.28;74.27
66689;BME280;53587;59.318;18.084;2023-07-13T03:04:21;100619.03;;;19.50;78.04
66689;BME280;53587;59.318;18.084;2023-07-13T03:06:46;100619.19;;;19.72;78.46
66689;BME280;53587;59.318;18.084;2023-07-13T03:09:12;100624.84;;;19.95;77.88
66689;BME280;53587;59.318;18.084;2023-07-13T03:11:37;100613.38;;;20.16;77.52
66689;BME280;53587;59.318;18.084;2023-07-13T03:14:03;100615.31;;;20.29;77.00
66689;BME280;53587;59.318;18.084;2023-07-13T03:16:28;100621.03;;;20.47;75.65
66689;BME280;53587;59.318;18.084;2023-07-13T03:18:53;100629.13;;;20.57;75.24
66689;BME280;53587;59.318;18.084;2023-07-13T03:21:19;100629.50;;;20.64;75.00
66689;BME280;53587;59.318;18.084;2023-07-13T03:23:44;100632.69;;;20.71;74.23
66689;BME280;53587;59.318;18.084;2023-07-13T03:26:14;100636.16;;;20.77;74.46
66689;BME280;53587;59.318;18.084;2023-07-13T03:28:40;100631.31;;;20.83;74.38
66689;BME280;53587;59.318;18.084;2023-07-13T03:31:07;100635.59;;;20.89;73.89
66689;BME280;53587;59.318;18.084;2023-07-13T03:33:33;100631.91;;;20.94;73.87
66689;BME280;53587;59.318;18.084;2023-07-13T03:35:58;100636.00;;;20.96;73.54
66689;BME280;53587;59.318;18.084;2023-07-13T03:38:24;100632.94;;;20.98;73.25
66689;BME280;53587;59.318;18.084;2023-07-13T03:40:49;100637.22;;;21.04;73.15
66689;BME280;53587;59.318;18.084;2023-07-13T03:43:14;100633.00;;;21.06;72.99
66689;BME280;53587;59.318;18.084;2023-07-13T03:45:39;100637.09;;;21.09;73.00
66689;BME280;53587;59.318;18.084;2023-07-13T03:48:04;100639.53;;;21.11;72.75
66689;BME280;53587;59.318;18.084;2023-07-13T03:50:30;100642.81;;;21.13;72.84
66689;BME280;53587;59.318;18.084;2023-07-13T03:52:56;100646.53;;;20.71;70.71
66689;BME280;53587;59.318;18.084;2023-07-13T03:55:22;100636.22;;;20.07;71.33
66689;BME280;53587;59.318;18.084;2023-07-13T03:57:47;100631.56;;;19.61;71.34
66689;BME280;53587;59.318;18.084;2023-07-13T04:00:13;100639.41;;;19.21;71.34
66689;BME280;53587;59.318;18.084;2023-07-13T04:02:38;100644.69;;;19.36;76.57
66689;BME280;53587;59.318;18.084;2023-07-13T04:05:03;100640.16;;;19.59;78.65
66689;BME280;53587;59.318;18.084;2023-07-13T04:07:29;100634.47;;;19.84;78.66
66689;BME280;53587;59.318;18.084;2023-07-13T04:09:54;100640.41;;;20.05;77.67
66689;BME280;53587;59.318;18.084;2023-07-13T04:12:19;100637.56;;;20.24;76.49
66689;BME280;53587;59.318;18.084;2023-07-13T04:14:44;100637.53;;;20.38;76.30
66689;BME280;53587;59.318;18.084;2023-07-13T04:17:09;100651.66;;;20.50;75.55
66689;BME280;53587;59.318;18.084;2023-07-13T04:19:35;100654.53;;;20.59;74.85
66689;BME280;53587;59.318;18.084;2023-07-13T04:22:00;100649.38;;;20.66;74.04
66689;BME280;53587;59.318;18.084;2023-07-13T04:24:25;100654.00;;;20.71;74.38
66689;BME280;53587;59.318;18.084;2023-07-13T04:26:51;100649.19;;;20.77;73.83
66689;BME280;53587;59.318;18.084;2023-07-13T04:29:16;100652.97;;;20.81;73.61
66689;BME280;53587;59.318;18.084;2023-07-13T04:31:41;100645.34;;;20.86;73.10
66689;BME280;53587;59.318;18.084;2023-07-13T04:34:06;100658.28;;;20.91;73.16
66689;BME280;53587;59.318;18.084;2023-07-13T04:36:31;100653.72;;;20.95;72.65
66689;BME280;53587;59.318;18.084;2023-07-13T04:38:57;100659.78;;;20.97;72.73
66689;BME280;53587;59.318;18.084;2023-07-13T04:41:22;100659.19;;;21.00;72.39
66689;BME280;53587;59.318;18.084;2023-07-13T04:43:47;100655.25;;;21.01;72.33
66689;BME280;53587;59.318;18.084;2023-07-13T04:46:14;100649.09;;;21.04;72.23
66689;BME280;53587;59.318;18.084;2023-07-13T04:48:40;100652.38;;;21.06;71.95
66689;BME280;53587;59.318;18.084;2023-07-13T04:51:05;100660.06;;;21.10;71.98
66689;BME280;53587;59.318;18.084;2023-07-13T04:53:31;100664.72;;;21.00;70.15
66689;BME280;53587;59.318;18.084;2023-07-13T04:55:57;100660.50;;;20.24;70.06
66689;BME280;53587;59.318;18.084;2023-07-13T04:58:23;100662.78;;;19.75;70.70
66689;BME280;53587;59.318;18.084;2023-07-13T05:00:49;100664.72;;;19.28;70.41
66689;BME280;53587;59.318;18.084;2023-07-13T05:03:14;100668.16;;;19.20;73.88
66689;BME280;53587;59.318;18.084;2023-07-13T05:05:39;100677.16;;;19.44;77.93
66689;BME280;53587;59.318;18.084;2023-07-13T05:08:04;100659.63;;;19.68;77.48
66689;BME280;53587;59.318;18.084;2023-07-13T05:10:30;100657.81;;;19.91;77.13
66689;BME280;53587;59.318;18.084;2023-07-13T05:12:55;100653.84;;;20.11;75.37
66689;BME280;53587;59.318;18.084;2023-07-13T05:15:21;100659.91;;;20.27;75.13
66689;BME280;53587;59.318;18.084;2023-07-13T05:17:47;100663.78;;;20.40;74.56
66689;BME280;53587;59.318;18.084;2023-07-13T05:20:12;100664.38;;;20.51;73.94
66689;BME280;53587;59.318;18.084;2023-07-13T05:22:37;100668.38;;;20.59;73.33
66689;BME280;53587;59.318;18.084;2023-07-13T05:25:06;100670.41;;;20.67;73.19
66689;BME280;53587;59.318;18.084;2023-07-13T05:27:32;100675.84;;;20.72;72.89
66689;BME280;53587;59.318;18.084;2023-07-13T05:29:57;100667.44;;;20.78;72.60
66689;BME280;53587;59.318;18.084;2023-07-13T05:32:22;100673.38;;;20.85;72.34
66689;BME280;53587;59.318;18.084;2023-07-13T05:34:47;100678.28;;;20.88;71.73
66689;BME280;53587;59.318;18.084;2023-07-13T05:37:13;100680.94;;;20.93;71.00
66689;BME280;53587;59.318;18.084;2023-07-13T05:39:38;100674.47;;;20.98;71.28
66689;BME280;53587;59.318;18.084;2023-07-13T05:42:03;100688.50;;;21.01;70.99
66689;BME280;53587;59.318;18.084;2023-07-13T05:44:28;100680.69;;;21.03;70.90
66689;BME280;53587;59.318;18.084;2023-07-13T05:46:54;100677.59;;;21.05;70.56
66689;BME280;53587;59.318;18.084;2023-07-13T05:49:21;100679.47;;;20.31;69.21
66689;BME280;53587;59.318;18.084;2023-07-13T05:51:46;100687.38;;;19.77;69.51
66689;BME280;53587;59.318;18.084;2023-07-13T05:54:11;100689.94;;;19.40;70.92
66689;BME280;53587;59.318;18.084;2023-07-13T05:56:37;100688.69;;;19.13;73.41
66689;BME280;53587;59.318;18.084;2023-07-13T05:59:02;100681.66;;;19.40;76.09
66689;BME280;53587;59.318;18.084;2023-07-13T06:01:29;100681.75;;;19.68;76.50
66689;BME280;53587;59.318;18.084;2023-07-13T06:03:54;100674.63;;;19.95;75.25
66689;BME280;53587;59.318;18.084;2023-07-13T06:06:19;100669.81;;;20.15;73.89
66689;BME280;53587;59.318;18.084;2023-07-13T06:08:45;100671.78;;;20.28;73.70
66689;BME280;53587;59.318;18.084;2023-07-13T06:11:14;100672.06;;;20.40;72.55
66689;BME280;53587;59.318;18.084;2023-07-13T06:13:40;100671.56;;;20.52;72.93
66689;BME280;53587;59.318;18.084;2023-07-13T06:16:05;100675.22;;;20.62;71.80
66689;BME280;53587;59.318;18.084;2023-07-13T06:18:32;100681.16;;;20.69;71.50
66689;BME280;53587;59.318;18.084;2023-07-13T06:20:57;100689.09;;;20.75;71.54
66689;BME280;53587;59.318;18.084;2023-07-13T06:23:23;100684.25;;;20.81;70.85
66689;BME280;53587;59.318;18.084;2023-07-13T06:25:48;100696.66;;;20.84;71.08
66689;BME280;53587;59.318;18.084;2023-07-13T06:28:13;100685.44;;;20.89;70.65
66689;BME280;53587;59.318;18.084;2023-07-13T06:30:39;100690.38;;;20.92;70.47
66689;BME280;53587;59.318;18.084;2023-07-13T06:33:04;100691.72;;;20.95;69.71
66689;BME280;53587;59.318;18.084;2023-07-13T06:35:29;100701.84;;;20.99;69.80
66689;BME280;53587;59.318;18.084;2023-07-13T06:37:55;100696.50;;;21.03;69.72
66689;BME280;53587;59.318;18.084;2023-07-13T06:40:20;100698.16;;;21.04;69.73
66689;BME280;53587;59.318;18.084;2023-07-13T06:42:45;100697.41;;;20.48;68.45
66689;BME280;53587;59.318;18.084;2023-07-13T06:45:10;100691.31;;;19.90;69.64
66689;BME280;53587;59.318;18.084;2023-07-13T06:47:35;100700.91;;;19.45;70.17
66689;BME280;53587;59.318;18.084;2023-07-13T06:50:01;100701.06;;;19.16;69.96
66689;BME280;53587;59.318;18.084;2023-07-13T06:52:26;100709.38;;;19.35;75.30
66689;BME280;53587;59.318;18.084;2023-07-13T06:54:51;100709.97;;;19.65;74.64
66689;BME280;53587;59.318;18.084;2023-07-13T06:57:16;100702.69;;;19.88;73.59
66689;BME280;53587;59.318;18.084;2023-07-13T06:59:41;100695.94;;;20.08;72.92
66689;BME280;53587;59.318;18.084;2023-07-13T07:02:08;100709.50;;;20.24;72.29
66689;BME280;53587;59.318;18.084;2023-07-13T07:04:34;100715.03;;;20.38;72.23
66689;BME280;53587;59.318;18.084;2023-07-13T07:06:59;100710.09;;;20.49;71.63
66689;BME280;53587;59.318;18.084;2023-07-13T07:09:24;100717.69;;;20.57;71.18
66689;BME280;53587;59.318;18.084;2023-07-13T07:11:49;100714.19;;;20.65;70.84
66689;BME280;53587;59.318;18.084;2023-07-13T07:14:15;100707.44;;;20.71;70.33
66689;BME280;53587;59.318;18.084;2023-07-13T07:16:40;100723.94;;;20.77;70.33
66689;BME280;53587;59.318;18.084;2023-07-13T07:19:05;100710.81;;;20.82;69.80
66689;BME280;53587;59.318;18.084;2023-07-13T07:21:30;100722.09;;;20.86;69.41
66689;BME280;53587;59.318;18.084;2023-07-13T07:23:56;100714.78;;;20.90;69.16
66689;BME280;53587;59.318;18.084;2023-07-13T07:26:21;100718.28;;;20.96;68.90
66689;BME280;53587;59.318;18.084;2023-07-13T07:28:46;100718.78;;;20.98;69.10
66689;BME280;53587;59.318;18.084;2023-07-13T07:31:11;100711.50;;;21.02;68.26
66689;BME280;53587;59.318;18.084;2023-07-13T07:33:37;100708.41;;;21.03;68.31
66689;BME280;53587;59.318;18.084;2023-07-13T07:36:02;100711.69;;;21.05;68.31
66689;BME280;53587;59.318;18.084;2023-07-13T07:38:28;100710.94;;;20.35;67.47
66689;BME280;53587;59.318;18.084;2023-07-13T07:40:53;100713.97;;;19.73;68.33
66689;BME280;53587;59.318;18.084;2023-07-13T07:43:19;100716.00;;;19.34;69.08
66689;BME280;53587;59.318;18.084;2023-07-13T07:45:44;100712.59;;;19.04;70.96
66689;BME280;53587;59.318;18.084;2023-07-13T07:48:09;100712.66;;;19.37;73.36
66689;BME280;53587;59.318;18.084;2023-07-13T07:50:35;100718.78;;;19.67;72.41
66689;BME280;53587;59.318;18.084;2023-07-13T07:53:00;100710.09;;;19.93;71.86
66689;BME280;53587;59.318;18.084;2023-07-13T07:55:27;100717.47;;;20.11;71.35
66689;BME280;53587;59.318;18.084;2023-07-13T07:57:52;100725.47;;;20.27;70.76
66689;BME280;53587;59.318;18.084;2023-07-13T08:00:17;100721.38;;;20.38;69.51
66689;BME280;53587;59.318;18.084;2023-07-13T08:02:43;100719.53;;;20.48;69.23
66689;BME280;53587;59.318;18.084;2023-07-13T08:05:08;100726.81;;;20.57;69.39
66689;BME280;53587;59.318;18.084;2023-07-13T08:07:34;100726.38;;;20.64;68.33
66689;BME280;53587;59.318;18.084;2023-07-13T08:09:59;100732.66;;;20.70;68.63
66689;BME280;53587;59.318;18.084;2023-07-13T08:12:24;100735.84;;;20.77;67.78
66689;BME280;53587;59.318;18.084;2023-07-13T08:14:50;100737.69;;;20.82;67.74
66689;BME280;53587;59.318;18.084;2023-07-13T08:17:19;100730.41;;;20.86;67.88
66689;BME280;53587;59.318;18.084;2023-07-13T08:19:44;100719.84;;;20.88;67.44
66689;BME280;53587;59.318;18.084;2023-07-13T08:22:09;100724.75;;;20.91;67.23
66689;BME280;53587;59.318;18.084;2023-07-13T08:24:34;100731.28;;;20.95;67.67
66689;BME280;53587;59.318;18.084;2023-07-13T08:26:59;100730.69;;;20.98;67.16
66689;BME280;53587;59.318;18.084;2023-07-13T08:29:25;100728.91;;;21.02;66.64
66689;BME280;53587;59.318;18.084;2023-07-13T08:31:50;100731.41;;;21.04;66.44
66689;BME280;53587;59.318;18.084;2023-07-13T08:34:15;100735.72;;;20.40;66.25
66689;BME280;53587;59.318;18.084;2023-07-13T08:36:40;100740.38;;;19.84;67.72
66689;BME280;53587;59.318;18.084;2023-07-13T08:39:05;100746.00;;;19.41;69.14
66689;BME280;53587;59.318;18.084;2023-07-13T08:41:31;100753.28;;;19.18;69.06
66689;BME280;53587;59.318;18.084;2023-07-13T08:43:58;100763.50;;;19.36;71.65
66689;BME280;53587;59.318;18.084;2023-07-13T08:46:37;100753.00;;;19.71;71.36
66689;BME280;53587;59.318;18.084;2023-07-13T08:49:05;100751.47;;;19.98;70.17
66689;BME280;53587;59.318;18.084;2023-07-13T08:51:44;100756.63;;;20.19;69.34
66689;BME280;53587;59.318;18.084;2023-07-13T08:56:55;100753.28;;;20.50;67.88
66689;BME280;53587;59.318;18.084;2023-07-13T08:59:22;100762.00;;;20.57;67.02
66689;BME280;53587;59.318;18.084;2023-07-13T09:04:39;100752.84;;;20.70;66.79
66689;BME280;53587;59.318;18.084;2023-07-13T09:10:01;100761.47;;;20.83;66.18
66689;BME280;53587;59.318;18.084;2023-07-13T09:12:36;100764.44;;;20.86;65.96
66689;BME280;53587;59.318;18.084;2023-07-13T09:15:05;100753.56;;;20.90;65.81
66689;BME280;53587;59.318;18.084;2023-07-13T09:17:45;100757.66;;;20.92;65.43
66689;BME280;53587;59.318;18.084;2023-07-13T09:20:23;100765.06;;;20.97;65.25
66689;BME280;53587;59.318;18.084;2023-07-13T09:22:50;100767.50;;;20.99;65.54
66689;BME280;53587;59.318;18.084;2023-07-13T09:25:32;100766.91;;;21.02;65.17
66689;BME280;53587;59.318;18.084;2023-07-13T09:28:11;100753.84;;;21.02;64.79
66689;BME280;53587;59.318;18.084;2023-07-13T09:33:22;100771.81;;;19.69;67.41
66689;BME280;53587;59.318;18.084;2023-07-13T09:35:47;100784.03;;;19.30;68.52
66689;BME280;53587;59.318;18.084;2023-07-13T09:38:14;100770.66;;;19.18;70.27
66689;BME280;53587;59.318;18.084;2023-07-13T09:40:43;100768.09;;;19.60;69.76
66689;BME280;53587;59.318;18.084;2023-07-13T09:43:13;100764.34;;;19.89;68.74
66689;BME280;53587;59.318;18.084;2023-07-13T09:45:40;100769.22;;;20.11;68.25
66689;BME280;53587;59.318;18.084;2023-07-13T09:48:12;100749.25;;;20.28;67.11
66689;BME280;53587;59.318;18.084;2023-07-13T09:50:38;100753.97;;;20.41;66.15
66689;BME280;53587;59.318;18.084;2023-07-13T09:53:03;100762.28;;;20.55;65.97
66689;BME280;53587;59.318;18.084;2023-07-13T09:55:36;100760.75;;;20.63;65.39
66689;BME280;53587;59.318;18.084;2023-07-13T09:58:23;100759.53;;;20.69;65.38
66689;BME280;53587;59.318;18.084;2023-07-13T10:03:21;100759.53;;;20.83;64.72
66689;BME280;53587;59.318;18.084;2023-07-13T10:05:48;100755.31;;;20.86;64.95
66689;BME280;53587;59.318;18.084;2023-07-13T10:08:22;100754.41;;;20.90;64.43
66689;BME280;53587;59.318;18.084;2023-07-13T10:10:52;100752.97;;;20.93;64.27
66689;BME280;53587;59.318;18.084;2023-07-13T10:14:20;100759.50;;;20.97;63.95
66689;BME280;53587;59.318;18.084;2023-07-13T10:16:13;100767.69;;;21.02;63.84
66689;BME280;53587;59.318;18.084;2023-07-13T10:18:44;100763.53;;;20.63;63.79
66689;BME280;53587;59.318;18.084;2023-07-13T10:21:15;100761.31;;;20.04;64.34
66689;BME280;53587;59.318;18.084;2023-07-13T10:23:40;100765.88;;;19.62;65.52
66689;BME280;53587;59.318;18.084;2023-07-13T10:26:09;100765.38;;;19.22;66.83
66689;BME280;53587;59.318;18.084;2023-07-13T10:28:37;100770.81;;;19.46;69.22
66689;BME280;53587;59.318;18.084;2023-07-13T10:31:04;100766.13;;;19.79;67.79
66689;BME280;53587;59.318;18.084;2023-07-13T10:33:32;100771.53;;;20.04;66.38
66689;BME280;53587;59.318;18.084;2023-07-13T10:36:05;100769.53;;;20.23;65.96
66689;BME280;53587;59.318;18.084;2023-07-13T10:38:37;100775.31;;;20.41;65.47
66689;BME280;53587;59.318;18.084;2023-07-13T10:41:04;100775.09;;;20.51;65.12
66689;BME280;53587;59.318;18.084;2023-07-13T10:43:37;100762.16;;;20.60;64.76
66689;BME280;53587;59.318;18.084;2023-07-13T10:46:05;100772.22;;;20.70;64.19
66689;BME280;53587;59.318;18.084;2023-07-13T10:48:32;100766.63;;;20.75;64.26
66689;BME280;53587;59.318;18.084;2023-07-13T10:50:59;100776.16;;;20.83;63.72
66689;BME280;53587;59.318;18.084;2023-07-13T10:53:33;100763.63;;;20.86;63.54
66689;BME280;53587;59.318;18.084;2023-07-13T10:56:02;100766.28;;;20.91;62.88
66689;BME280;53587;59.318;18.084;2023-07-13T10:58:34;100764.53;;;20.95;63.14
66689;BME280;53587;59.318;18.084;2023-07-13T11:01:06;100763.59;;;21.00;62.52
66689;BME280;53587;59.318;18.084;2023-07-13T11:03:33;100761.75;;;20.95;62.84
66689;BME280;53587;59.318;18.084;2023-07-13T11:19:26;100772.75;;;19.98;66.02
66689;BME280;53587;59.318;18.084;2023-07-13T11:24:04;100779.81;;;20.37;64.08
66689;BME280;53587;59.318;18.084;2023-07-13T11:31:42;100761.78;;;20.67;63.52
66689;BME280;53587;59.318;18.084;2023-07-13T11:34:12;100764.16;;;20.74;63.07
66689;BME280;53587;59.318;18.084;2023-07-13T11:36:39;100766.81;;;20.79;62.51
66689;BME280;53587;59.318;18.084;2023-07-13T11:39:13;100763.63;;;20.86;62.41
66689;BME280;53587;59.318;18.084;2023-07-13T11:41:55;100771.03;;;20.90;62.25
66689;BME280;53587;59.318;18.084;2023-07-13T11:44:22;100765.69;;;20.94;62.15
66689;BME280;53587;59.318;18.084;2023-07-13T11:46:52;100765.06;;;20.97;62.08
66689;BME280;53587;59.318;18.084;2023-07-13T11:49:19;100763.81;;;21.03;61.60
66689;BME280;53587;59.318;18.084;2023-07-13T11:51:45;100770.31;;;20.57;61.57
66689;BME280;53587;59.318;18.084;2023-07-13T11:54:23;100764.47;;;19.98;63.37
66689;BME280;53587;59.318;18.084;2023-07-13T11:56:49;100766.53;;;19.54;65.06
66689;BME280;53587;59.318;18.084;2023-07-13T11:59:14;100771.88;;;19.31;66.32
66689;BME280;53587;59.318;18.084;2023-07-13T12:01:42;100762.59;;;19.60;67.01
66689;BME280;53587;59.318;18.084;2023-07-13T12:04:08;100762.41;;;19.89;65.34
66689;BME280;53587;59.318;18.084;2023-07-13T12:06:43;100768.91;;;20.13;64.81
66689;BME280;53587;59.318;18.084;2023-07-13T12:09:12;100765.84;;;20.28;63.92
66689;BME280;53587;59.318;18.084;2023-07-13T12:11:38;100751.75;;;20.43;64.18
66689;BME280;53587;59.318;18.084;2023-07-13T12:14:04;100764.25;;;20.55;63.40
66689;BME280;53587;59.318;18.084;2023-07-13T12:16:30;100762.69;;;20.63;63.35
66689;BME280;53587;59.318;18.084;2023-07-13T12:18:58;100750.91;;;20.71;63.02
66689;BME280;53587;59.318;18.084;2023-07-13T12:21:28;100755.25;;;20.77;62.44
66689;BME280;53587;59.318;18.084;2023-07-13T12:23:54;100767.84;;;20.83;62.56
66689;BME280;53587;59.318;18.084;2023-07-13T12:26:20;100759.09;;;20.90;62.43
66689;BME280;53587;59.318;18.084;2023-07-13T12:28:47;100754.09;;;20.92;62.23
66689;BME280;53587;59.318;18.084;2023-07-13T12:34:17;100750.88;;;20.99;62.03
66689;BME280;53587;59.318;18.084;2023-07-13T12:36:51;100755.44;;;20.81;61.64
66689;BME280;53587;59.318;18.084;2023-07-13T12:39:19;100755.16;;;20.07;62.90
66689;BME280;53587;59.318;18.084;2023-07-13T12:41:45;100752.41;;;19.74;64.49
66689;BME280;53587;59.318;18.084;2023-07-13T12:44:32;100754.59;;;19.39;65.36
66689;BME280;53587;59.318;18.084;2023-07-13T12:46:57;100750.50;;;19.56;67.04
66689;BME280;53587;59.318;18.084;2023-07-13T12:49:23;100746.13;;;19.88;66.23
66689;BME280;53587;59.318;18.084;2023-07-13T12:51:50;100748.41;;;20.14;65.21
66689;BME280;53587;59.318;18.084;2023-07-13T12:54:16;100761.34;;;20.32;64.27
66689;BME280;53587;59.318;18.084;2023-07-13T12:56:42;100753.06;;;20.46;63.83
66689;BME280;53587;59.318;18.084;2023-07-13T12:59:09;100754.50;;;20.57;63.86
66689;BME280;53587;59.318;18.084;2023-07-13T13:01:41;100749.06;;;20.66;64.02
66689;BME280;53587;59.318;18.084;2023-07-13T13:04:08;100749.50;;;20.73;63.29
66689;BME280;53587;59.318;18.084;2023-07-13T13:06:36;100754.59;;;20.80;62.98
66689;BME280;53587;59.318;18.084;2023-07-13T13:09:03;100743.13;;;20.87;62.79
66689;BME280;53587;59.318;18.084;2023-07-13T13:11:30;100749.66;;;20.91;62.57
66689;BME280;53587;59.318;18.084;2023-07-13T13:13:56;100736.84;;;20.95;62.45
66689;BME280;53587;59.318;18.084;2023-07-13T13:16:35;100741.44;;;21.00;62.17
66689;BME280;53587;59.318;18.084;2023-07-13T13:19:12;100734.56;;;20.97;62.34